sensor_id;sensor_type;location;lat;lon;timestamp;pressure;altitude;pressure_sealevel;temperature;humidity
6387;BME280;3226;42.162;24.756;2024-02-26T00:00:19;99337.03;;;8.83;100.00
6387;BME280;3226;42.162;24.756;2024-02-26T00:02:47;99346.19;;;8.89;100.00
6387;BME280;3226;42.162;24.756;2024-02-26T00:05:15;99333.94;;;8.89;100.00
6387;BME280;3226;42.162;24.756;2024-02-26T00:07:43;99343.41;;;9.02;100.00
6387;BME280;3226;42.162;24.756;2024-02-26T00:10:11;99343.63;;;8.99;100.00
6387;BME280;3226;42.162;24.756;2024-02-26T00:12:39;99327.56;;;8.82;100.00
6387;BME280;3226;42.162;24.756;2024-02-26T00:15:10;99323.31;;;8.70;100.00
6387;BME280;3226;42.162;24.756;2024-02-26T00:17:38;99339.66;;;8.83;100.00
6387;BME280;3226;42.162;24.756;2024-02-26T00:20:07;99331.28;;;8.68;100.00
6387;BME280;3226;42.162;24.756;2024-02-26T00:22:36;99297.94;;;8.60;100.00
6387;BME280;3226;42.162;24.756;2024-02-26T00:25:04;99311.53;;;8.75;100.00
6387;BME280;3226;42.162;24.756;2024-02-26T00:27:33;99334.41;;;9.16;100.00
6387;BME280;3226;42.162;24.756;2024-02-26T00:30:01;99315.66;;;8.89;100.00
6387;BME280;3226;42.162;24.756;2024-02-26T00:32:30;99328.38;;;8.82;100.00
6387;BME280;3226;42.162;24.756;2024-02-26T00:34:58;99314.75;;;8.79;100.00
6387;BME280;3226;42.162;24.756;2024-02-26T00:37:26;99306.34;;;8.96;100.00
6387;BME280;3226;42.162;24.756;2024-02-26T00:39:54;99310.38;;;9.01;100.00
6387;BME280;3226;42.162;24.756;2024-02-26T00:42:22;99336.97;;;9.06;100.00
6387;BME280;3226;42.162;24.756;2024-02-26T00:44:50;99327.91;;;8.89;100.00
6387;BME280;3226;42.162;24.756;2024-02-26T00:47:18;99352.16;;;9.12;100.00
6387;BME280;3226;42.162;24.756;2024-02-26T00:49:47;99311.59;;;8.96;100.00
6387;BME280;3226;42.162;24.756;2024-02-26T00:52:15;99316.31;;;8.70;100.00
6387;BME280;3226;42.162;24.756;2024-02-26T00:54:43;99314.44;;;8.61;100.00
6387;BME280;3226;42.162;24.756;2024-02-26T00:57:11;99323.81;;;8.96;100.00
6387;BME280;3226;42.162;24.756;2024-02-26T00:59:39;99319.16;;;9.00;100.00
6387;BME280;3226;42.162;24.756;2024-02-26T01:02:07;99297.53;;;8.76;100.00
6387;BME280;3226;42.162;24.756;2024-02-26T01:04:35;99270.28;;;8.46;100.00
6387;BME280;3226;42.162;24.756;2024-02-26T01:07:05;99257.06;;;8.49;100.00
6387;BME280;3226;42.162;24.756;2024-02-26T01:09:33;99249.53;;;8.67;100.00
6387;BME280;3226;42.162;24.756;2024-02-26T01:12:01;99242.66;;;8.55;100.00
6387;BME280;3226;42.162;24.756;2024-02-26T01:14:29;99193.50;;;8.28;100.00
6387;BME280;3226;42.162;24.756;2024-02-26T01:16:57;99254.19;;;8.52;100.00
6387;BME280;3226;42.162;24.756;2024-02-26T01:19:25;99270.38;;;8.79;100.00
6387;BME280;3226;42.162;24.756;2024-02-26T01:21:53;99243.84;;;8.83;100.00
6387;BME280;3226;42.162;24.756;2024-02-26T01:24:23;99264.63;;;8.85;100.00
6387;BME280;3226;42.162;24.756;2024-02-26T01:26:50;99271.84;;;8.93;100.00
6387;BME280;3226;42.162;24.756;2024-02-26T01:29:18;99265.06;;;9.02;100.00
6387;BME280;3226;42.162;24.756;2024-02-26T01:31:46;99284.22;;;9.12;100.00
6387;BME280;3226;42.162;24.756;2024-02-26T01:34:14;99281.59;;;8.91;100.00
6387;BME280;3226;42.162;24.756;2024-02-26T01:36:44;99297.56;;;8.97;100.00
6387;BME280;3226;42.162;24.756;2024-02-26T01:39:12;99284.66;;;8.96;100.00
6387;BME280;3226;42.162;24.756;2024-02-26T01:41:42;99294.94;;;9.09;100.00
6387;BME280;3226;42.162;24.756;2024-02-26T01:44:11;99291.16;;;9.02;100.00
6387;BME280;3226;42.162;24.756;2024-02-26T01:46:40;99292.34;;;8.97;100.00
6387;BME280;3226;42.162;24.756;2024-02-26T01:49:08;99298.91;;;8.92;100.00
6387;BME280;3226;42.162;24.756;2024-02-26T01:51:39;99297.56;;;8.97;100.00
6387;BME280;3226;42.162;24.756;2024-02-26T01:54:08;99288.84;;;8.87;100.00
6387;BME280;3226;42.162;24.756;2024-02-26T01:56:37;99285.53;;;8.85;100.00
6387;BME280;3226;42.162;24.756;2024-02-26T01:59:08;99289.88;;;8.96;100.00
6387;BME280;3226;42.162;24.756;2024-02-26T02:01:36;99251.06;;;8.91;100.00
6387;BME280;3226;42.162;24.756;2024-02-26T02:04:06;99280.22;;;9.08;100.00
6387;BME280;3226;42.162;24.756;2024-02-26T02:06:35;99281.72;;;9.10;100.00
6387;BME280;3226;42.162;24.756;2024-02-26T02:09:04;99284.66;;;9.17;100.00
6387;BME280;3226;42.162;24.756;2024-02-26T02:11:34;99301.03;;;8.98;100.00
6387;BME280;3226;42.162;24.756;2024-02-26T02:14:02;99288.47;;;8.92;100.00
6387;BME280;3226;42.162;24.756;2024-02-26T02:16:32;99271.25;;;8.89;100.00
6387;BME280;3226;42.162;24.756;2024-02-26T02:19:00;99283.25;;;8.92;100.00
6387;BME280;3226;42.162;24.756;2024-02-26T02:21:30;99284.56;;;8.86;100.00
6387;BME280;3226;42.162;24.756;2024-02-26T02:23:58;99283.47;;;8.67;100.00
6387;BME280;3226;42.162;24.756;2024-02-26T02:26:26;99284.28;;;8.68;100.00
6387;BME280;3226;42.162;24.756;2024-02-26T02:28:54;99282.03;;;8.63;100.00
6387;BME280;3226;42.162;24.756;2024-02-26T02:31:22;99270.19;;;8.48;100.00
6387;BME280;3226;42.162;24.756;2024-02-26T02:33:50;99276.22;;;8.48;100.00
6387;BME280;3226;42.162;24.756;2024-02-26T02:36:18;99284.19;;;8.58;100.00
6387;BME280;3226;42.162;24.756;2024-02-26T02:38:51;99283.13;;;8.38;100.00
6387;BME280;3226;42.162;24.756;2024-02-26T02:41:19;99275.91;;;8.53;100.00
6387;BME280;3226;42.162;24.756;2024-02-26T02:43:48;99274.00;;;8.55;100.00
6387;BME280;3226;42.162;24.756;2024-02-26T02:46:16;99278.81;;;8.48;100.00
6387;BME280;3226;42.162;24.756;2024-02-26T02:48:44;99258.84;;;8.26;100.00
6387;BME280;3226;42.162;24.756;2024-02-26T02:51:12;99278.66;;;8.29;100.00
6387;BME280;3226;42.162;24.756;2024-02-26T02:53:40;99267.19;;;8.08;100.00
6387;BME280;3226;42.162;24.756;2024-02-26T02:56:09;99279.25;;;8.32;100.00
6387;BME280;3226;42.162;24.756;2024-02-26T02:58:37;99290.75;;;8.30;100.00
6387;BME280;3226;42.162;24.756;2024-02-26T03:01:05;99267.03;;;8.10;100.00
6387;BME280;3226;42.162;24.756;2024-02-26T03:03:33;99293.84;;;8.23;100.00
6387;BME280;3226;42.162;24.756;2024-02-26T03:06:03;99295.50;;;8.13;100.00
6387;BME280;3226;42.162;24.756;2024-02-26T03:08:31;99307.50;;;8.04;100.00
6387;BME280;3226;42.162;24.756;2024-02-26T03:10:59;99298.34;;;8.10;100.00
6387;BME280;3226;42.162;24.756;2024-02-26T03:13:29;99299.66;;;8.16;100.00
6387;BME280;3226;42.162;24.756;2024-02-26T03:15:57;99290.50;;;8.10;100.00
6387;BME280;3226;42.162;24.756;2024-02-26T03:18:25;99294.19;;;8.19;100.00
6387;BME280;3226;42.162;24.756;2024-02-26T03:20:53;99304.88;;;8.16;100.00
6387;BME280;3226;42.162;24.756;2024-02-26T03:23:21;99297.16;;;8.25;100.00
6387;BME280;3226;42.162;24.756;2024-02-26T03:25:48;99279.72;;;8.26;100.00
6387;BME280;3226;42.162;24.756;2024-02-26T03:28:16;99300.00;;;8.11;100.00
6387;BME280;3226;42.162;24.756;2024-02-26T03:30:46;99284.47;;;8.09;100.00
6387;BME280;3226;42.162;24.756;2024-02-26T03:33:14;99299.16;;;8.22;100.00
6387;BME280;3226;42.162;24.756;2024-02-26T03:35:42;99296.63;;;8.43;100.00
6387;BME280;3226;42.162;24.756;2024-02-26T03:38:10;99295.81;;;8.43;100.00
6387;BME280;3226;42.162;24.756;2024-02-26T03:40:38;99257.78;;;8.29;100.00
6387;BME280;3226;42.162;24.756;2024-02-26T03:43:06;99279.72;;;8.26;100.00
6387;BME280;3226;42.162;24.756;2024-02-26T03:45:34;99294.91;;;8.32;100.00
6387;BME280;3226;42.162;24.756;2024-02-26T03:48:04;99299.94;;;8.45;100.00
6387;BME280;3226;42.162;24.756;2024-02-26T03:50:32;99303.41;;;8.57;100.00
6387;BME280;3226;42.162;24.756;2024-02-26T03:53:01;99270.72;;;8.19;100.00
6387;BME280;3226;42.162;24.756;2024-02-26T03:55:29;99282.59;;;8.12;100.00
6387;BME280;3226;42.162;24.756;2024-02-26T03:57:57;99294.53;;;8.25;100.00
6387;BME280;3226;42.162;24.756;2024-02-26T04:00:26;99291.44;;;8.32;100.00
6387;BME280;3226;42.162;24.756;2024-02-26T04:02:56;99301.84;;;8.43;100.00
6387;BME280;3226;42.162;24.756;2024-02-26T04:05:26;99278.53;;;8.19;100.00
6387;BME280;3226;42.162;24.756;2024-02-26T04:07:54;99251.06;;;8.03;100.00
6387;BME280;3226;42.162;24.756;2024-02-26T04:10:22;99312.69;;;8.50;100.00
6387;BME280;3226;42.162;24.756;2024-02-26T04:12:49;99255.66;;;8.22;100.00
6387;BME280;3226;42.162;24.756;2024-02-26T04:15:17;99301.50;;;8.59;100.00
6387;BME280;3226;42.162;24.756;2024-02-26T04:17:46;99299.13;;;8.56;100.00
6387;BME280;3226;42.162;24.756;2024-02-26T04:20:15;99244.16;;;8.14;100.00
6387;BME280;3226;42.162;24.756;2024-02-26T04:22:45;99301.50;;;8.48;100.00
6387;BME280;3226;42.162;24.756;2024-02-26T04:25:13;99300.22;;;8.53;100.00
6387;BME280;3226;42.162;24.756;2024-02-26T04:27:41;99293.81;;;8.58;100.00
6387;BME280;3226;42.162;24.756;2024-02-26T04:30:10;99289.16;;;8.61;100.00
6387;BME280;3226;42.162;24.756;2024-02-26T04:32:38;99280.56;;;8.49;100.00
6387;BME280;3226;42.162;24.756;2024-02-26T04:35:06;99298.41;;;8.65;100.00
6387;BME280;3226;42.162;24.756;2024-02-26T04:37:35;99275.91;;;8.53;100.00
6387;BME280;3226;42.162;24.756;2024-02-26T04:40:06;99299.13;;;8.67;100.00
6387;BME280;3226;42.162;24.756;2024-02-26T04:42:34;99309.97;;;8.84;100.00
6387;BME280;3226;42.162;24.756;2024-02-26T04:45:03;99267.72;;;8.58;100.00
6387;BME280;3226;42.162;24.756;2024-02-26T04:47:31;99307.19;;;8.64;100.00
6387;BME280;3226;42.162;24.756;2024-02-26T04:49:59;99252.66;;;8.27;100.00
6387;BME280;3226;42.162;24.756;2024-02-26T04:52:27;99308.13;;;8.63;100.00
6387;BME280;3226;42.162;24.756;2024-02-26T04:54:55;99300.22;;;8.53;100.00
6387;BME280;3226;42.162;24.756;2024-02-26T04:57:24;99296.63;;;8.43;100.00
6387;BME280;3226;42.162;24.756;2024-02-26T04:59:53;99310.28;;;8.58;100.00
6387;BME280;3226;42.162;24.756;2024-02-26T05:02:21;99308.28;;;8.62;100.00
6387;BME280;3226;42.162;24.756;2024-02-26T05:04:51;99315.59;;;8.68;100.00
6387;BME280;3226;42.162;24.756;2024-02-26T05:07:20;99311.94;;;8.59;100.00
6387;BME280;3226;42.162;24.756;2024-02-26T05:09:48;99314.09;;;8.54;100.00
6387;BME280;3226;42.162;24.756;2024-02-26T05:12:17;99303.41;;;8.57;100.00
6387;BME280;3226;42.162;24.756;2024-02-26T05:14:46;99281.47;;;8.37;100.00
6387;BME280;3226;42.162;24.756;2024-02-26T05:17:14;99315.00;;;8.64;100.00
6387;BME280;3226;42.162;24.756;2024-02-26T05:19:42;99315.25;;;8.61;100.00
6387;BME280;3226;42.162;24.756;2024-02-26T05:22:10;99297.25;;;8.47;100.00
6387;BME280;3226;42.162;24.756;2024-02-26T05:24:39;99198.22;;;7.78;100.00
6387;BME280;3226;42.162;24.756;2024-02-26T05:27:07;99291.19;;;8.46;100.00
6387;BME280;3226;42.162;24.756;2024-02-26T05:29:35;99240.59;;;8.15;100.00
6387;BME280;3226;42.162;24.756;2024-02-26T05:32:05;99327.09;;;8.77;100.00
6387;BME280;3226;42.162;24.756;2024-02-26T05:34:34;99327.34;;;8.74;100.00
6387;BME280;3226;42.162;24.756;2024-02-26T05:37:02;99331.13;;;8.81;100.00
6387;BME280;3226;42.162;24.756;2024-02-26T05:39:30;99340.53;;;8.61;100.00
6387;BME280;3226;42.162;24.756;2024-02-26T05:41:58;99335.88;;;8.64;100.00
6387;BME280;3226;42.162;24.756;2024-02-26T05:44:27;99337.91;;;8.72;100.00
6387;BME280;3226;42.162;24.756;2024-02-26T05:46:55;99341.31;;;8.84;100.00
6387;BME280;3226;42.162;24.756;2024-02-26T05:49:24;99342.16;;;8.73;100.00
6387;BME280;3226;42.162;24.756;2024-02-26T05:51:52;99343.50;;;8.67;100.00
6387;BME280;3226;42.162;24.756;2024-02-26T05:54:21;99324.38;;;8.67;100.00
6387;BME280;3226;42.162;24.756;2024-02-26T05:56:49;99339.06;;;8.79;100.00
6387;BME280;3226;42.162;24.756;2024-02-26T05:59:17;99351.66;;;8.86;100.00
6387;BME280;3226;42.162;24.756;2024-02-26T06:01:45;99353.06;;;8.78;100.00
6387;BME280;3226;42.162;24.756;2024-02-26T06:04:13;99355.06;;;8.86;100.00
6387;BME280;3226;42.162;24.756;2024-02-26T06:06:42;99360.88;;;8.90;100.00
6387;BME280;3226;42.162;24.756;2024-02-26T06:09:10;99357.31;;;8.91;100.00
6387;BME280;3226;42.162;24.756;2024-02-26T06:11:38;99357.81;;;8.85;100.00
6387;BME280;3226;42.162;24.756;2024-02-26T06:14:07;99363.75;;;8.87;100.00
6387;BME280;3226;42.162;24.756;2024-02-26T06:16:36;99367.31;;;8.86;100.00
6387;BME280;3226;42.162;24.756;2024-02-26T06:19:04;99353.22;;;8.65;100.00
6387;BME280;3226;42.162;24.756;2024-02-26T06:21:36;99351.94;;;8.60;100.00
6387;BME280;3226;42.162;24.756;2024-02-26T06:24:06;99373.63;;;8.60;100.00
6387;BME280;3226;42.162;24.756;2024-02-26T06:26:34;99381.56;;;8.47;100.00
6387;BME280;3226;42.162;24.756;2024-02-26T06:29:02;99372.78;;;8.48;100.00
6387;BME280;3226;42.162;24.756;2024-02-26T06:31:30;99373.03;;;8.45;100.00
6387;BME280;3226;42.162;24.756;2024-02-26T06:33:58;99375.53;;;8.47;100.00
6387;BME280;3226;42.162;24.756;2024-02-26T06:36:26;99380.53;;;8.38;100.00
6387;BME280;3226;42.162;24.756;2024-02-26T06:38:54;99362.47;;;8.24;100.00
6387;BME280;3226;42.162;24.756;2024-02-26T06:41:24;99384.06;;;8.49;100.00
6387;BME280;3226;42.162;24.756;2024-02-26T06:43:54;99396.66;;;8.55;100.00
6387;BME280;3226;42.162;24.756;2024-02-26T06:46:22;99362.16;;;8.51;100.00
6387;BME280;3226;42.162;24.756;2024-02-26T06:48:50;99394.28;;;8.75;100.00
6387;BME280;3226;42.162;24.756;2024-02-26T06:51:21;99369.16;;;8.51;100.00
6387;BME280;3226;42.162;24.756;2024-02-26T06:53:50;99376.94;;;8.62;100.00
6387;BME280;3226;42.162;24.756;2024-02-26T06:56:18;99397.84;;;8.62;100.00
6387;BME280;3226;42.162;24.756;2024-02-26T06:58:47;99399.28;;;8.66;100.00
6387;BME280;3226;42.162;24.756;2024-02-26T07:01:15;99351.56;;;8.19;100.00
6387;BME280;3226;42.162;24.756;2024-02-26T07:03:43;99386.78;;;8.36;100.00
6387;BME280;3226;42.162;24.756;2024-02-26T07:06:11;99398.78;;;8.61;100.00
6387;BME280;3226;42.162;24.756;2024-02-26T07:08:40;99401.03;;;8.66;100.00
6387;BME280;3226;42.162;24.756;2024-02-26T07:11:08;99388.09;;;8.64;100.00
6387;BME280;3226;42.162;24.756;2024-02-26T07:13:36;99405.66;;;8.74;100.00
6387;BME280;3226;42.162;24.756;2024-02-26T07:16:08;99264.69;;;7.95;100.00
6387;BME280;3226;42.162;24.756;2024-02-26T07:18:39;99394.28;;;8.75;100.00
6387;BME280;3226;42.162;24.756;2024-02-26T07:21:07;99395.78;;;8.77;100.00
6387;BME280;3226;42.162;24.756;2024-02-26T07:23:35;99396.03;;;8.74;100.00
6387;BME280;3226;42.162;24.756;2024-02-26T07:26:03;99393.56;;;8.73;100.00
6387;BME280;3226;42.162;24.756;2024-02-26T07:28:32;99399.38;;;8.65;100.00
6387;BME280;3226;42.162;24.756;2024-02-26T07:31:00;99386.22;;;8.66;100.00
6387;BME280;3226;42.162;24.756;2024-02-26T07:33:29;99400.31;;;8.75;100.00
6387;BME280;3226;42.162;24.756;2024-02-26T07:35:58;99404.09;;;8.82;100.00
6387;BME280;3226;42.162;24.756;2024-02-26T07:38:26;99411.47;;;8.89;100.00
6387;BME280;3226;42.162;24.756;2024-02-26T07:41:08;99402.75;;;9.00;100.00
6387;BME280;3226;42.162;24.756;2024-02-26T07:43:36;99401.56;;;9.04;100.00
6387;BME280;3226;42.162;24.756;2024-02-26T07:46:04;99399.56;;;8.96;100.00
6387;BME280;3226;42.162;24.756;2024-02-26T07:48:34;99395.41;;;9.05;100.00
6387;BME280;3226;42.162;24.756;2024-02-26T07:51:03;99396.31;;;9.15;100.00
6387;BME280;3226;42.162;24.756;2024-02-26T07:53:32;99396.25;;;9.26;100.00
6387;BME280;3226;42.162;24.756;2024-02-26T07:56:00;99401.94;;;9.32;100.00
6387;BME280;3226;42.162;24.756;2024-02-26T07:58:30;99388.75;;;9.33;100.00
6387;BME280;3226;42.162;24.756;2024-02-26T08:00:58;99398.97;;;9.36;100.00
6387;BME280;3226;42.162;24.756;2024-02-26T08:03:26;99338.75;;;9.05;100.00
6387;BME280;3226;42.162;24.756;2024-02-26T08:05:55;99389.78;;;9.42;100.00
6387;BME280;3226;42.162;24.756;2024-02-26T08:08:24;99394.72;;;9.57;100.00
6387;BME280;3226;42.162;24.756;2024-02-26T08:10:52;99394.44;;;9.60;100.00
6387;BME280;3226;42.162;24.756;2024-02-26T08:13:20;99363.16;;;9.48;100.00
6387;BME280;3226;42.162;24.756;2024-02-26T08:15:47;99390.69;;;9.95;100.00
6387;BME280;3226;42.162;24.756;2024-02-26T08:18:15;99390.13;;;9.91;100.00
6387;BME280;3226;42.162;24.756;2024-02-26T08:20:44;99375.50;;;9.89;100.00
6387;BME280;3226;42.162;24.756;2024-02-26T08:23:14;99330.75;;;9.39;100.00
6387;BME280;3226;42.162;24.756;2024-02-26T08:25:42;99386.84;;;9.99;100.00
6387;BME280;3226;42.162;24.756;2024-02-26T08:28:10;99377.22;;;10.00;100.00
6387;BME280;3226;42.162;24.756;2024-02-26T08:30:39;99389.13;;;10.13;100.00
6387;BME280;3226;42.162;24.756;2024-02-26T08:33:07;99387.06;;;10.17;100.00
6387;BME280;3226;42.162;24.756;2024-02-26T08:35:36;99395.47;;;10.42;100.00
6387;BME280;3226;42.162;24.756;2024-02-26T08:38:04;99349.03;;;10.13;100.00
6387;BME280;3226;42.162;24.756;2024-02-26T08:40:34;99379.00;;;10.30;100.00
6387;BME280;3226;42.162;24.756;2024-02-26T08:43:02;99382.56;;;10.50;100.00
6387;BME280;3226;42.162;24.756;2024-02-26T08:45:30;99380.34;;;10.55;100.00
6387;BME280;3226;42.162;24.756;2024-02-26T08:47:58;99380.44;;;10.85;100.00
6387;BME280;3226;42.162;24.756;2024-02-26T08:50:26;99384.03;;;11.04;100.00
6387;BME280;3226;42.162;24.756;2024-02-26T08:52:54;99379.38;;;11.17;100.00
6387;BME280;3226;42.162;24.756;2024-02-26T08:55:22;99381.56;;;11.02;100.00
6387;BME280;3226;42.162;24.756;2024-02-26T08:57:52;99379.75;;;11.03;100.00
6387;BME280;3226;42.162;24.756;2024-02-26T09:00:20;99370.75;;;10.76;100.00
6387;BME280;3226;42.162;24.756;2024-02-26T09:02:48;99376.59;;;10.99;100.00
6387;BME280;3226;42.162;24.756;2024-02-26T09:05:16;99373.00;;;10.90;100.00
6387;BME280;3226;42.162;24.756;2024-02-26T09:07:44;99365.28;;;10.98;100.00
6387;BME280;3226;42.162;24.756;2024-02-26T09:10:13;99363.50;;;11.19;100.00
6387;BME280;3226;42.162;24.756;2024-02-26T09:12:41;99363.91;;;11.34;100.00
6387;BME280;3226;42.162;24.756;2024-02-26T09:15:11;99353.69;;;11.21;100.00
6387;BME280;3226;42.162;24.756;2024-02-26T09:17:39;99380.06;;;11.59;100.00
6387;BME280;3226;42.162;24.756;2024-02-26T09:20:08;99376.97;;;11.73;98.45
6387;BME280;3226;42.162;24.756;2024-02-26T09:22:36;99342.09;;;11.53;98.33
6387;BME280;3226;42.162;24.756;2024-02-26T09:25:06;99362.75;;;11.85;96.94
6387;BME280;3226;42.162;24.756;2024-02-26T09:27:34;99355.28;;;11.91;95.38
6387;BME280;3226;42.162;24.756;2024-02-26T09:30:05;99318.94;;;11.96;92.57
6387;BME280;3226;42.162;24.756;2024-02-26T09:32:35;99351.41;;;12.05;92.70
6387;BME280;3226;42.162;24.756;2024-02-26T09:35:04;99365.50;;;12.04;93.28
6387;BME280;3226;42.162;24.756;2024-02-26T09:37:33;99367.72;;;12.26;93.58
6387;BME280;3226;42.162;24.756;2024-02-26T09:40:04;99353.84;;;12.06;91.53
6387;BME280;3226;42.162;24.756;2024-02-26T09:42:34;99344.97;;;12.17;90.29
6387;BME280;3226;42.162;24.756;2024-02-26T09:45:06;99356.59;;;12.42;90.04
6387;BME280;3226;42.162;24.756;2024-02-26T09:47:38;99351.63;;;12.67;88.51
6387;BME280;3226;42.162;24.756;2024-02-26T09:50:09;99367.03;;;12.80;87.41
6387;BME280;3226;42.162;24.756;2024-02-26T09:52:40;99358.28;;;13.08;84.84
6387;BME280;3226;42.162;24.756;2024-02-26T09:55:09;99360.44;;;12.76;85.91
6387;BME280;3226;42.162;24.756;2024-02-26T09:57:38;99355.47;;;12.73;86.11
6387;BME280;3226;42.162;24.756;2024-02-26T10:00:18;99355.09;;;12.86;85.43
6387;BME280;3226;42.162;24.756;2024-02-26T10:02:49;99350.06;;;12.93;85.34
6387;BME280;3226;42.162;24.756;2024-02-26T10:05:18;99347.38;;;13.21;83.54
6387;BME280;3226;42.162;24.756;2024-02-26T10:07:47;99319.44;;;13.20;81.23
6387;BME280;3226;42.162;24.756;2024-02-26T10:10:15;99339.34;;;13.04;82.08
6387;BME280;3226;42.162;24.756;2024-02-26T10:12:43;99328.44;;;12.99;82.21
6387;BME280;3226;42.162;24.756;2024-02-26T10:15:12;99300.38;;;13.18;81.34
6387;BME280;3226;42.162;24.756;2024-02-26T10:17:41;99324.22;;;13.42;79.84
6387;BME280;3226;42.162;24.756;2024-02-26T10:20:15;99319.72;;;13.35;81.07
6387;BME280;3226;42.162;24.756;2024-02-26T10:22:44;99308.97;;;13.46;80.10
6387;BME280;3226;42.162;24.756;2024-02-26T10:25:13;99314.09;;;13.29;79.34
6387;BME280;3226;42.162;24.756;2024-02-26T10:27:41;99301.44;;;13.33;78.27
6387;BME280;3226;42.162;24.756;2024-02-26T10:30:20;99300.38;;;13.18;80.58
6387;BME280;3226;42.162;24.756;2024-02-26T10:32:50;99295.00;;;13.46;78.93
6387;BME280;3226;42.162;24.756;2024-02-26T10:35:19;99281.94;;;13.62;77.05
6387;BME280;3226;42.162;24.756;2024-02-26T10:37:48;99242.63;;;13.61;76.64
6387;BME280;3226;42.162;24.756;2024-02-26T10:40:17;99285.63;;;14.04;76.49
6387;BME280;3226;42.162;24.756;2024-02-26T10:42:45;99280.75;;;14.26;73.35
6387;BME280;3226;42.162;24.756;2024-02-26T10:45:13;99282.16;;;14.12;72.96
6387;BME280;3226;42.162;24.756;2024-02-26T10:47:41;99282.88;;;14.22;73.55
6387;BME280;3226;42.162;24.756;2024-02-26T10:50:12;99281.91;;;14.23;72.89
6387;BME280;3226;42.162;24.756;2024-02-26T10:52:42;99278.66;;;13.95;74.76
6387;BME280;3226;42.162;24.756;2024-02-26T10:55:15;99276.63;;;14.23;73.56
6387;BME280;3226;42.162;24.756;2024-02-26T10:57:45;99278.44;;;14.31;74.36
6387;BME280;3226;42.162;24.756;2024-02-26T11:00:15;99271.56;;;14.38;72.23
6387;BME280;3226;42.162;24.756;2024-02-26T11:02:45;99272.38;;;14.39;68.88
6387;BME280;3226;42.162;24.756;2024-02-26T11:05:14;99265.84;;;14.59;66.53
6387;BME280;3226;42.162;24.756;2024-02-26T11:07:44;99259.41;;;14.45;68.60
6387;BME280;3226;42.162;24.756;2024-02-26T11:10:15;99268.03;;;14.72;67.23
6387;BME280;3226;42.162;24.756;2024-02-26T11:12:44;99258.78;;;14.68;67.84
6387;BME280;3226;42.162;24.756;2024-02-26T11:15:12;99239.66;;;14.66;68.15
6387;BME280;3226;42.162;24.756;2024-02-26T11:17:43;99251.97;;;14.32;70.55
6387;BME280;3226;42.162;24.756;2024-02-26T11:20:12;99246.34;;;14.19;69.99
6387;BME280;3226;42.162;24.756;2024-02-26T11:22:41;99247.69;;;14.40;69.69
6387;BME280;3226;42.162;24.756;2024-02-26T11:25:11;99206.50;;;14.22;69.75
6387;BME280;3226;42.162;24.756;2024-02-26T11:27:50;99237.81;;;14.42;68.74
6387;BME280;3226;42.162;24.756;2024-02-26T11:30:19;99235.09;;;14.09;70.06
6387;BME280;3226;42.162;24.756;2024-02-26T11:32:48;99233.66;;;14.23;69.39
6387;BME280;3226;42.162;24.756;2024-02-26T11:35:18;99231.06;;;13.80;71.06
6387;BME280;3226;42.162;24.756;2024-02-26T11:37:56;99230.56;;;13.84;71.91
6387;BME280;3226;42.162;24.756;2024-02-26T11:40:26;99218.97;;;14.12;70.91
6387;BME280;3226;42.162;24.756;2024-02-26T11:42:54;99221.50;;;14.30;70.32
6387;BME280;3226;42.162;24.756;2024-02-26T11:45:53;99211.97;;;14.37;69.97
6387;BME280;3226;42.162;24.756;2024-02-26T11:48:24;99214.47;;;14.55;68.55
6387;BME280;3226;42.162;24.756;2024-02-26T11:50:54;99209.88;;;14.74;67.04
6387;BME280;3226;42.162;24.756;2024-02-26T11:53:24;99215.97;;;14.83;67.73
6387;BME280;3226;42.162;24.756;2024-02-26T11:56:21;99204.78;;;14.89;66.14
6387;BME280;3226;42.162;24.756;2024-02-26T11:58:56;99207.72;;;15.11;65.91
6387;BME280;3226;42.162;24.756;2024-02-26T12:01:44;99205.56;;;15.23;65.13
6387;BME280;3226;42.162;24.756;2024-02-26T12:04:17;99201.78;;;15.17;64.58
6387;BME280;3226;42.162;24.756;2024-02-26T12:06:49;99190.72;;;15.22;64.08
6387;BME280;3226;42.162;24.756;2024-02-26T12:09:34;99192.38;;;15.23;63.96
6387;BME280;3226;42.162;24.756;2024-02-26T12:12:05;99191.22;;;15.17;65.48
6387;BME280;3226;42.162;24.756;2024-02-26T12:14:36;99202.81;;;14.83;65.55
6387;BME280;3226;42.162;24.756;2024-02-26T12:17:05;99192.06;;;15.01;65.89
6387;BME280;3226;42.162;24.756;2024-02-26T12:19:35;99192.06;;;15.09;66.09
6387;BME280;3226;42.162;24.756;2024-02-26T12:22:12;99190.59;;;15.07;65.40
6387;BME280;3226;42.162;24.756;2024-02-26T12:24:40;99197.50;;;15.16;65.91
6387;BME280;3226;42.162;24.756;2024-02-26T12:27:10;99164.84;;;15.17;65.54
6387;BME280;3226;42.162;24.756;2024-02-26T12:29:40;99190.31;;;15.58;64.97
6387;BME280;3226;42.162;24.756;2024-02-26T12:32:08;99192.22;;;15.72;64.32
6387;BME280;3226;42.162;24.756;2024-02-26T12:34:37;99195.47;;;15.91;62.97
6387;BME280;3226;42.162;24.756;2024-02-26T12:37:06;99188.78;;;16.03;61.92
6387;BME280;3226;42.162;24.756;2024-02-26T12:39:35;99146.34;;;15.73;61.36
6387;BME280;3226;42.162;24.756;2024-02-26T12:42:05;99180.00;;;15.71;63.08
6387;BME280;3226;42.162;24.756;2024-02-26T12:44:35;99157.16;;;15.55;61.03
6387;BME280;3226;42.162;24.756;2024-02-26T12:47:03;99174.97;;;15.53;62.01
6387;BME280;3226;42.162;24.756;2024-02-26T12:49:32;99173.94;;;15.63;61.34
6387;BME280;3226;42.162;24.756;2024-02-26T12:52:01;99160.09;;;15.60;60.85
6387;BME280;3226;42.162;24.756;2024-02-26T12:54:30;99176.53;;;15.71;60.19
6387;BME280;3226;42.162;24.756;2024-02-26T12:57:01;99168.44;;;15.72;60.09
6387;BME280;3226;42.162;24.756;2024-02-26T12:59:30;99168.44;;;15.41;59.83
6387;BME280;3226;42.162;24.756;2024-02-26T13:02:00;99172.06;;;15.40;60.78
6387;BME280;3226;42.162;24.756;2024-02-26T13:04:33;99171.00;;;15.57;60.34
6387;BME280;3226;42.162;24.756;2024-02-26T13:07:03;99176.88;;;15.68;59.78
6387;BME280;3226;42.162;24.756;2024-02-26T13:09:33;99149.06;;;15.57;59.69
6387;BME280;3226;42.162;24.756;2024-02-26T13:12:04;99173.88;;;15.79;59.83
6387;BME280;3226;42.162;24.756;2024-02-26T13:14:32;99172.34;;;15.85;60.52
6387;BME280;3226;42.162;24.756;2024-02-26T13:17:03;99180.44;;;15.83;58.63
6387;BME280;3226;42.162;24.756;2024-02-26T13:19:31;99175.88;;;15.69;59.99